sensor_id;sensor_type;location;lat;lon;timestamp;P1;durP1;ratioP1;P2;durP2;ratioP2
19087;SDS011;9676;50.916;13.352;2023-05-31T00:01:06;11.07;;;9.90;;
19087;SDS011;9676;50.916;13.352;2023-05-31T00:03:55;10.47;;;9.57;;
19087;SDS011;9676;50.916;13.352;2023-05-31T00:06:45;10.07;;;9.10;;
19087;SDS011;9676;50.916;13.352;2023-05-31T00:09:34;10.30;;;9.37;;
19087;SDS011;9676;50.916;13.352;2023-05-31T00:12:25;10.20;;;9.33;;
19087;SDS011;9676;50.916;13.352;2023-05-31T00:15:14;9.87;;;9.07;;
19087;SDS011;9676;50.916;13.352;2023-05-31T00:18:04;10.13;;;9.33;;
19087;SDS011;9676;50.916;13.352;2023-05-31T00:20:54;10.50;;;9.60;;
19087;SDS011;9676;50.916;13.352;2023-05-31T00:23:43;10.50;;;9.60;;
19087;SDS011;9676;50.916;13.352;2023-05-31T00:26:32;10.60;;;9.63;;
19087;SDS011;9676;50.916;13.352;2023-05-31T00:29:23;10.67;;;9.77;;
19087;SDS011;9676;50.916;13.352;2023-05-31T00:32:13;11.07;;;9.70;;
19087;SDS011;9676;50.916;13.352;2023-05-31T00:35:03;11.10;;;10.10;;
19087;SDS011;9676;50.916;13.352;2023-05-31T00:37:53;11.13;;;9.93;;
19087;SDS011;9676;50.916;13.352;2023-05-31T00:40:44;11.53;;;10.40;;
19087;SDS011;9676;50.916;13.352;2023-05-31T00:43:35;11.40;;;10.30;;
19087;SDS011;9676;50.916;13.352;2023-05-31T00:46:26;11.17;;;10.13;;
19087;SDS011;9676;50.916;13.352;2023-05-31T00:49:19;11.53;;;10.40;;
19087;SDS011;9676;50.916;13.352;2023-05-31T00:52:09;11.00;;;9.90;;
19087;SDS011;9676;50.916;13.352;2023-05-31T00:54:59;11.57;;;10.47;;
19087;SDS011;9676;50.916;13.352;2023-05-31T00:57:49;10.53;;;9.63;;
19087;SDS011;9676;50.916;13.352;2023-05-31T01:00:39;11.20;;;10.10;;
19087;SDS011;9676;50.916;13.352;2023-05-31T01:03:32;10.93;;;9.93;;
19087;SDS011;9676;50.916;13.352;2023-05-31T01:06:22;10.47;;;9.57;;
19087;SDS011;9676;50.916;13.352;2023-05-31T01:09:11;10.97;;;10.00;;
19087;SDS011;9676;50.916;13.352;2023-05-31T01:12:04;10.03;;;9.20;;
19087;SDS011;9676;50.916;13.352;2023-05-31T01:15:06;10.37;;;9.47;;
19087;SDS011;9676;50.916;13.352;2023-05-31T01:18:06;10.53;;;9.63;;
19087;SDS011;9676;50.916;13.352;2023-05-31T01:21:07;10.20;;;9.30;;
19087;SDS011;9676;50.916;13.352;2023-05-31T01:23:59;10.40;;;9.50;;
19087;SDS011;9676;50.916;13.352;2023-05-31T01:27:07;10.70;;;9.70;;
19087;SDS011;9676;50.916;13.352;2023-05-31T01:29:57;10.50;;;9.60;;
19087;SDS011;9676;50.916;13.352;2023-05-31T01:32:48;11.00;;;9.50;;
19087;SDS011;9676;50.916;13.352;2023-05-31T01:35:41;9.90;;;9.10;;
19087;SDS011;9676;50.916;13.352;2023-05-31T01:38:32;10.20;;;9.30;;
19087;SDS011;9676;50.916;13.352;2023-05-31T01:41:22;10.60;;;9.67;;
19087;SDS011;9676;50.916;13.352;2023-05-31T01:44:15;10.60;;;9.60;;
19087;SDS011;9676;50.916;13.352;2023-05-31T01:47:07;10.50;;;9.60;;
19087;SDS011;9676;50.916;13.352;2023-05-31T01:49:58;9.83;;;8.93;;
19087;SDS011;9676;50.916;13.352;2023-05-31T01:52:48;10.70;;;9.70;;
19087;SDS011;9676;50.916;13.352;2023-05-31T01:55:37;10.93;;;9.87;;
19087;SDS011;9676;50.916;13.352;2023-05-31T01:58:30;10.40;;;9.50;;
19087;SDS011;9676;50.916;13.352;2023-05-31T02:01:22;10.50;;;9.60;;
19087;SDS011;9676;50.916;13.352;2023-05-31T02:04:12;12.17;;;9.90;;
19087;SDS011;9676;50.916;13.352;2023-05-31T02:07:06;10.63;;;9.67;;
19087;SDS011;9676;50.916;13.352;2023-05-31T02:09:56;10.20;;;9.37;;
19087;SDS011;9676;50.916;13.352;2023-05-31T02:12:46;10.17;;;9.33;;
19087;SDS011;9676;50.916;13.352;2023-05-31T02:15:39;10.90;;;9.80;;
19087;SDS011;9676;50.916;13.352;2023-05-31T02:18:30;10.47;;;9.57;;
19087;SDS011;9676;50.916;13.352;2023-05-31T02:21:19;10.07;;;9.27;;
19087;SDS011;9676;50.916;13.352;2023-05-31T02:24:09;10.40;;;9.50;;
19087;SDS011;9676;50.916;13.352;2023-05-31T02:27:01;10.77;;;9.77;;
19087;SDS011;9676;50.916;13.352;2023-05-31T02:29:51;10.30;;;9.50;;
19087;SDS011;9676;50.916;13.352;2023-05-31T02:32:42;10.83;;;9.90;;
19087;SDS011;9676;50.916;13.352;2023-05-31T02:35:33;10.20;;;9.40;;
19087;SDS011;9676;50.916;13.352;2023-05-31T02:38:23;10.20;;;9.30;;
19087;SDS011;9676;50.916;13.352;2023-05-31T02:41:12;10.50;;;9.60;;
19087;SDS011;9676;50.916;13.352;2023-05-31T02:44:02;10.90;;;10.00;;
19087;SDS011;9676;50.916;13.352;2023-05-31T02:46:52;10.00;;;9.20;;
19087;SDS011;9676;50.916;13.352;2023-05-31T02:49:42;10.03;;;9.23;;
19087;SDS011;9676;50.916;13.352;2023-05-31T02:52:33;10.50;;;9.60;;
19087;SDS011;9676;50.916;13.352;2023-05-31T02:55:22;10.33;;;9.43;;
19087;SDS011;9676;50.916;13.352;2023-05-31T02:58:41;10.27;;;9.40;;
19087;SDS011;9676;50.916;13.352;2023-05-31T03:01:46;10.23;;;9.33;;
19087;SDS011;9676;50.916;13.352;2023-05-31T03:05:08;10.50;;;9.60;;
19087;SDS011;9676;50.916;13.352;2023-05-31T03:08:00;10.23;;;9.33;;
19087;SDS011;9676;50.916;13.352;2023-05-31T03:10:50;10.40;;;9.53;;
19087;SDS011;9676;50.916;13.352;2023-05-31T03:13:39;10.60;;;9.67;;
19087;SDS011;9676;50.916;13.352;2023-05-31T03:16:29;10.30;;;9.40;;
19087;SDS011;9676;50.916;13.352;2023-05-31T03:19:18;10.70;;;9.80;;
19087;SDS011;9676;50.916;13.352;2023-05-31T03:22:11;10.70;;;9.70;;
19087;SDS011;9676;50.916;13.352;2023-05-31T03:25:02;10.13;;;9.30;;
19087;SDS011;9676;50.916;13.352;2023-05-31T03:27:53;10.57;;;9.57;;
19087;SDS011;9676;50.916;13.352;2023-05-31T03:30:43;10.63;;;9.73;;
19087;SDS011;9676;50.916;13.352;2023-05-31T03:33:32;10.10;;;9.27;;
19087;SDS011;9676;50.916;13.352;2023-05-31T03:36:22;10.33;;;9.40;;
19087;SDS011;9676;50.916;13.352;2023-05-31T03:39:12;10.40;;;9.50;;
19087;SDS011;9676;50.916;13.352;2023-05-31T03:42:03;10.50;;;9.60;;
19087;SDS011;9676;50.916;13.352;2023-05-31T03:44:54;10.20;;;9.30;;
19087;SDS011;9676;50.916;13.352;2023-05-31T03:47:44;10.50;;;9.60;;
19087;SDS011;9676;50.916;13.352;2023-05-31T03:50:35;10.30;;;9.40;;
19087;SDS011;9676;50.916;13.352;2023-05-31T03:53:26;10.03;;;9.20;;
19087;SDS011;9676;50.916;13.352;2023-05-31T03:56:17;10.33;;;9.33;;
19087;SDS011;9676;50.916;13.352;2023-05-31T03:59:08;10.50;;;9.60;;
19087;SDS011;9676;50.916;13.352;2023-05-31T04:01:57;10.43;;;9.53;;
19087;SDS011;9676;50.916;13.352;2023-05-31T04:04:47;10.27;;;9.37;;
19087;SDS011;9676;50.916;13.352;2023-05-31T04:07:37;10.53;;;9.63;;
19087;SDS011;9676;50.916;13.352;2023-05-31T04:10:27;10.40;;;9.50;;
19087;SDS011;9676;50.916;13.352;2023-05-31T04:13:17;10.80;;;9.80;;
19087;SDS011;9676;50.916;13.352;2023-05-31T04:16:07;10.50;;;9.40;;
19087;SDS011;9676;50.916;13.352;2023-05-31T04:18:57;9.90;;;9.10;;
19087;SDS011;9676;50.916;13.352;2023-05-31T04:21:46;10.20;;;9.30;;
19087;SDS011;9676;50.916;13.352;2023-05-31T04:24:36;10.30;;;9.40;;
19087;SDS011;9676;50.916;13.352;2023-05-31T04:27:26;10.67;;;9.73;;
19087;SDS011;9676;50.916;13.352;2023-05-31T04:30:16;9.93;;;9.10;;
19087;SDS011;9676;50.916;13.352;2023-05-31T04:33:07;10.13;;;9.13;;
19087;SDS011;9676;50.916;13.352;2023-05-31T04:35:57;9.90;;;9.00;;
19087;SDS011;9676;50.916;13.352;2023-05-31T04:38:46;10.23;;;9.37;;
19087;SDS011;9676;50.916;13.352;2023-05-31T04:41:39;10.20;;;9.30;;
19087;SDS011;9676;50.916;13.352;2023-05-31T04:44:29;9.80;;;8.90;;
19087;SDS011;9676;50.916;13.352;2023-05-31T04:47:19;9.90;;;9.00;;
19087;SDS011;9676;50.916;13.352;2023-05-31T04:50:10;9.97;;;9.07;;
19087;SDS011;9676;50.916;13.352;2023-05-31T04:53:00;9.90;;;9.00;;
19087;SDS011;9676;50.916;13.352;2023-05-31T04:55:50;10.33;;;9.20;;
19087;SDS011;9676;50.916;13.352;2023-05-31T04:58:40;9.70;;;8.80;;
19087;SDS011;9676;50.916;13.352;2023-05-31T05:01:33;10.00;;;9.00;;
19087;SDS011;9676;50.916;13.352;2023-05-31T05:04:30;10.40;;;9.30;;
19087;SDS011;9676;50.916;13.352;2023-05-31T05:07:21;10.23;;;9.23;;
19087;SDS011;9676;50.916;13.352;2023-05-31T05:10:11;9.83;;;8.87;;
19087;SDS011;9676;50.916;13.352;2023-05-31T05:13:01;9.57;;;8.60;;
19087;SDS011;9676;50.916;13.352;2023-05-31T05:15:50;14.40;;;8.93;;
19087;SDS011;9676;50.916;13.352;2023-05-31T05:18:40;9.43;;;8.53;;
19087;SDS011;9676;50.916;13.352;2023-05-31T05:21:30;9.50;;;8.63;;
19087;SDS011;9676;50.916;13.352;2023-05-31T05:24:21;10.00;;;9.00;;
19087;SDS011;9676;50.916;13.352;2023-05-31T05:27:10;10.60;;;9.60;;
19087;SDS011;9676;50.916;13.352;2023-05-31T05:30:00;13.27;;;9.23;;
19087;SDS011;9676;50.916;13.352;2023-05-31T05:32:50;9.70;;;8.80;;
19087;SDS011;9676;50.916;13.352;2023-05-31T05:35:40;9.63;;;8.67;;
19087;SDS011;9676;50.916;13.352;2023-05-31T05:38:29;9.40;;;8.50;;
19087;SDS011;9676;50.916;13.352;2023-05-31T05:41:21;9.20;;;8.40;;
19087;SDS011;9676;50.916;13.352;2023-05-31T05:44:10;13.13;;;9.10;;
19087;SDS011;9676;50.916;13.352;2023-05-31T05:46:59;10.00;;;9.00;;
19087;SDS011;9676;50.916;13.352;2023-05-31T05:49:49;9.63;;;8.70;;
19087;SDS011;9676;50.916;13.352;2023-05-31T05:52:40;9.63;;;8.70;;
19087;SDS011;9676;50.916;13.352;2023-05-31T05:55:30;9.07;;;8.27;;
19087;SDS011;9676;50.916;13.352;2023-05-31T05:58:21;9.20;;;8.30;;
19087;SDS011;9676;50.916;13.352;2023-05-31T06:01:48;9.50;;;8.57;;
19087;SDS011;9676;50.916;13.352;2023-05-31T06:04:39;9.30;;;8.40;;
19087;SDS011;9676;50.916;13.352;2023-05-31T06:07:30;10.20;;;8.50;;
19087;SDS011;9676;50.916;13.352;2023-05-31T06:10:19;9.57;;;8.57;;
19087;SDS011;9676;50.916;13.352;2023-05-31T06:13:08;9.30;;;8.50;;
19087;SDS011;9676;50.916;13.352;2023-05-31T06:16:01;9.80;;;8.70;;
19087;SDS011;9676;50.916;13.352;2023-05-31T06:18:52;9.57;;;8.33;;
19087;SDS011;9676;50.916;13.352;2023-05-31T06:21:43;10.23;;;8.57;;
19087;SDS011;9676;50.916;13.352;2023-05-31T06:24:32;8.80;;;8.10;;
19087;SDS011;9676;50.916;13.352;2023-05-31T06:27:22;9.00;;;8.20;;
19087;SDS011;9676;50.916;13.352;2023-05-31T06:30:12;8.83;;;8.03;;
19087;SDS011;9676;50.916;13.352;2023-05-31T06:33:06;9.43;;;8.50;;
19087;SDS011;9676;50.916;13.352;2023-05-31T06:35:56;9.70;;;8.70;;
19087;SDS011;9676;50.916;13.352;2023-05-31T06:38:46;9.00;;;8.13;;
19087;SDS011;9676;50.916;13.352;2023-05-31T06:41:36;8.98;;;8.07;;
19087;SDS011;9676;50.916;13.352;2023-05-31T06:45:05;9.38;;;8.48;;
19087;SDS011;9676;50.916;13.352;2023-05-31T06:48:14;9.03;;;8.23;;
19087;SDS011;9676;50.916;13.352;2023-05-31T06:51:30;9.18;;;8.38;;
19087;SDS011;9676;50.916;13.352;2023-05-31T06:54:55;8.90;;;8.00;;
19087;SDS011;9676;50.916;13.352;2023-05-31T06:57:45;8.93;;;8.10;;
19087;SDS011;9676;50.916;13.352;2023-05-31T07:00:34;13.63;;;7.97;;
19087;SDS011;9676;50.916;13.352;2023-05-31T07:03:25;9.20;;;8.30;;
19087;SDS011;9676;50.916;13.352;2023-05-31T07:06:17;10.70;;;8.60;;
19087;SDS011;9676;50.916;13.352;2023-05-31T07:09:09;9.23;;;8.30;;
19087;SDS011;9676;50.916;13.352;2023-05-31T07:12:11;11.60;;;8.50;;
19087;SDS011;9676;50.916;13.352;2023-05-31T07:15:00;8.80;;;8.10;;
19087;SDS011;9676;50.916;13.352;2023-05-31T07:17:50;9.73;;;8.30;;
19087;SDS011;9676;50.916;13.352;2023-05-31T07:20:41;9.35;;;8.55;;
19087;SDS011;9676;50.916;13.352;2023-05-31T07:23:31;9.50;;;8.60;;
19087;SDS011;9676;50.916;13.352;2023-05-31T07:26:20;9.32;;;8.48;;
19087;SDS011;9676;50.916;13.352;2023-05-31T07:29:11;9.90;;;8.90;;
19087;SDS011;9676;50.916;13.352;2023-05-31T07:32:01;14.38;;;8.10;;
19087;SDS011;9676;50.916;13.352;2023-05-31T07:34:50;9.63;;;8.48;;
19087;SDS011;9676;50.916;13.352;2023-05-31T07:37:52;9.13;;;8.23;;
19087;SDS011;9676;50.916;13.352;2023-05-31T07:40:41;9.10;;;8.23;;
19087;SDS011;9676;50.916;13.352;2023-05-31T07:43:31;8.95;;;8.18;;
19087;SDS011;9676;50.916;13.352;2023-05-31T07:46:22;9.63;;;8.15;;
19087;SDS011;9676;50.916;13.352;2023-05-31T07:49:11;9.13;;;8.30;;
19087;SDS011;9676;50.916;13.352;2023-05-31T07:52:01;8.77;;;8.00;;
19087;SDS011;9676;50.916;13.352;2023-05-31T07:54:53;10.90;;;9.80;;
19087;SDS011;9676;50.916;13.352;2023-05-31T07:57:42;9.68;;;8.77;;
19087;SDS011;9676;50.916;13.352;2023-05-31T08:00:32;9.07;;;8.27;;
19087;SDS011;9676;50.916;13.352;2023-05-31T08:03:22;9.10;;;8.30;;
19087;SDS011;9676;50.916;13.352;2023-05-31T08:06:12;8.70;;;7.90;;
19087;SDS011;9676;50.916;13.352;2023-05-31T08:09:02;8.70;;;7.90;;
19087;SDS011;9676;50.916;13.352;2023-05-31T08:11:53;10.73;;;8.48;;
19087;SDS011;9676;50.916;13.352;2023-05-31T08:14:43;8.90;;;8.10;;
19087;SDS011;9676;50.916;13.352;2023-05-31T08:17:32;9.38;;;8.48;;
19087;SDS011;9676;50.916;13.352;2023-05-31T08:20:22;9.05;;;8.18;;
19087;SDS011;9676;50.916;13.352;2023-05-31T08:23:16;12.57;;;8.32;;
19087;SDS011;9676;50.916;13.352;2023-05-31T08:26:06;8.38;;;7.68;;
19087;SDS011;9676;50.916;13.352;2023-05-31T08:28:57;9.20;;;8.07;;
19087;SDS011;9676;50.916;13.352;2023-05-31T08:31:46;8.45;;;7.75;;
19087;SDS011;9676;50.916;13.352;2023-05-31T08:34:36;8.70;;;7.90;;
19087;SDS011;9676;50.916;13.352;2023-05-31T08:37:25;9.40;;;7.80;;
19087;SDS011;9676;50.916;13.352;2023-05-31T08:40:15;8.70;;;7.90;;
19087;SDS011;9676;50.916;13.352;2023-05-31T08:43:05;8.40;;;7.60;;
19087;SDS011;9676;50.916;13.352;2023-05-31T08:46:04;8.13;;;7.53;;
19087;SDS011;9676;50.916;13.352;2023-05-31T08:48:56;8.75;;;7.88;;
19087;SDS011;9676;50.916;13.352;2023-05-31T08:51:58;8.85;;;7.95;;
19087;SDS011;9676;50.916;13.352;2023-05-31T08:54:48;8.13;;;7.45;;
19087;SDS011;9676;50.916;13.352;2023-05-31T08:57:37;8.30;;;7.60;;
19087;SDS011;9676;50.916;13.352;2023-05-31T09:00:27;8.70;;;7.75;;
19087;SDS011;9676;50.916;13.352;2023-05-31T09:03:18;8.48;;;7.72;;
19087;SDS011;9676;50.916;13.352;2023-05-31T09:06:13;8.38;;;7.57;;
19087;SDS011;9676;50.916;13.352;2023-05-31T09:09:03;8.27;;;7.55;;
19087;SDS011;9676;50.916;13.352;2023-05-31T09:11:56;8.43;;;7.70;;
19087;SDS011;9676;50.916;13.352;2023-05-31T09:14:45;8.90;;;8.00;;
19087;SDS011;9676;50.916;13.352;2023-05-31T09:17:35;8.32;;;7.72;;
19087;SDS011;9676;50.916;13.352;2023-05-31T09:20:31;8.00;;;7.43;;
19087;SDS011;9676;50.916;13.352;2023-05-31T09:23:21;9.45;;;8.02;;
19087;SDS011;9676;50.916;13.352;2023-05-31T09:26:10;7.85;;;7.32;;
19087;SDS011;9676;50.916;13.352;2023-05-31T09:29:00;8.13;;;7.53;;
19087;SDS011;9676;50.916;13.352;2023-05-31T09:31:49;8.52;;;7.72;;
19087;SDS011;9676;50.916;13.352;2023-05-31T09:35:01;8.60;;;7.80;;
19087;SDS011;9676;50.916;13.352;2023-05-31T09:38:04;9.57;;;7.80;;
19087;SDS011;9676;50.916;13.352;2023-05-31T09:40:55;8.10;;;7.50;;
19087;SDS011;9676;50.916;13.352;2023-05-31T09:43:45;8.27;;;7.57;;
19087;SDS011;9676;50.916;13.352;2023-05-31T09:46:36;8.30;;;7.60;;
19087;SDS011;9676;50.916;13.352;2023-05-31T09:49:25;8.75;;;8.05;;
19087;SDS011;9676;50.916;13.352;2023-05-31T09:52:15;8.68;;;7.90;;
19087;SDS011;9676;50.916;13.352;2023-05-31T09:55:08;13.27;;;8.13;;
19087;SDS011;9676;50.916;13.352;2023-05-31T09:58:02;8.82;;;8.02;;
19087;SDS011;9676;50.916;13.352;2023-05-31T10:00:52;8.32;;;7.65;;
19087;SDS011;9676;50.916;13.352;2023-05-31T10:03:41;7.80;;;7.30;;
19087;SDS011;9676;50.916;13.352;2023-05-31T10:06:33;7.82;;;7.22;;
19087;SDS011;9676;50.916;13.352;2023-05-31T10:09:27;8.40;;;7.70;;
19087;SDS011;9676;50.916;13.352;2023-05-31T10:12:18;13.98;;;7.55;;
19087;SDS011;9676;50.916;13.352;2023-05-31T10:15:12;8.10;;;7.50;;
19087;SDS011;9676;50.916;13.352;2023-05-31T10:18:07;11.43;;;7.50;;
19087;SDS011;9676;50.916;13.352;2023-05-31T10:21:06;8.20;;;7.50;;
19087;SDS011;9676;50.916;13.352;2023-05-31T10:24:00;8.07;;;7.47;;
19087;SDS011;9676;50.916;13.352;2023-05-31T10:26:54;8.77;;;7.97;;
19087;SDS011;9676;50.916;13.352;2023-05-31T10:29:51;8.23;;;7.60;;
19087;SDS011;9676;50.916;13.352;2023-05-31T10:32:45;8.35;;;7.50;;
19087;SDS011;9676;50.916;13.352;2023-05-31T10:35:41;8.30;;;7.70;;
19087;SDS011;9676;50.916;13.352;2023-05-31T10:38:39;8.50;;;7.80;;
19087;SDS011;9676;50.916;13.352;2023-05-31T10:41:39;8.20;;;7.60;;
19087;SDS011;9676;50.916;13.352;2023-05-31T10:44:35;7.65;;;7.15;;
19087;SDS011;9676;50.916;13.352;2023-05-31T10:47:33;8.20;;;7.50;;
19087;SDS011;9676;50.916;13.352;2023-05-31T10:50:28;7.95;;;7.35;;
19087;SDS011;9676;50.916;13.352;2023-05-31T10:53:18;8.30;;;7.68;;
19087;SDS011;9676;50.916;13.352;2023-05-31T10:56:08;8.00;;;7.30;;
19087;SDS011;9676;50.916;13.352;2023-05-31T10:59:01;7.95;;;7.40;;
19087;SDS011;9676;50.916;13.352;2023-05-31T11:01:51;8.50;;;7.80;;
19087;SDS011;9676;50.916;13.352;2023-05-31T11:04:42;7.95;;;7.35;;
19087;SDS011;9676;50.916;13.352;2023-05-31T11:07:32;8.50;;;7.80;;
19087;SDS011;9676;50.916;13.352;2023-05-31T11:10:25;8.45;;;7.80;;
19087;SDS011;9676;50.916;13.352;2023-05-31T11:13:20;9.40;;;8.20;;
19087;SDS011;9676;50.916;13.352;2023-05-31T11:20:05;9.50;;;8.53;;
19087;SDS011;9676;50.916;13.352;2023-05-31T11:26:22;9.37;;;8.20;;
19087;SDS011;9676;50.916;13.352;2023-05-31T11:29:11;10.03;;;8.70;;
19087;SDS011;9676;50.916;13.352;2023-05-31T11:32:00;9.43;;;8.53;;
19087;SDS011;9676;50.916;13.352;2023-05-31T11:34:50;10.63;;;9.03;;
19087;SDS011;9676;50.916;13.352;2023-05-31T11:37:43;9.90;;;8.90;;
19087;SDS011;9676;50.916;13.352;2023-05-31T11:40:33;10.10;;;9.10;;
19087;SDS011;9676;50.916;13.352;2023-05-31T11:43:24;9.87;;;8.87;;
19087;SDS011;9676;50.916;13.352;2023-05-31T11:46:14;10.07;;;9.07;;
19087;SDS011;9676;50.916;13.352;2023-05-31T11:49:04;11.00;;;8.90;;
19087;SDS011;9676;50.916;13.352;2023-05-31T11:51:54;9.70;;;8.80;;
19087;SDS011;9676;50.916;13.352;2023-05-31T11:54:46;9.80;;;8.90;;
19087;SDS011;9676;50.916;13.352;2023-05-31T11:57:41;16.93;;;9.00;;
19087;SDS011;9676;50.916;13.352;2023-05-31T12:00:32;10.47;;;9.10;;
19087;SDS011;9676;50.916;13.352;2023-05-31T12:03:22;10.97;;;9.20;;
19087;SDS011;9676;50.916;13.352;2023-05-31T12:06:12;9.60;;;8.70;;
19087;SDS011;9676;50.916;13.352;2023-05-31T12:09:02;9.80;;;8.80;;
19087;SDS011;9676;50.916;13.352;2023-05-31T12:11:53;11.07;;;9.13;;
19087;SDS011;9676;50.916;13.352;2023-05-31T12:14:48;10.00;;;9.10;;
19087;SDS011;9676;50.916;13.352;2023-05-31T12:17:39;9.87;;;8.87;;
19087;SDS011;9676;50.916;13.352;2023-05-31T12:20:29;10.17;;;9.07;;
19087;SDS011;9676;50.916;13.352;2023-05-31T12:23:19;13.00;;;9.00;;
19087;SDS011;9676;50.916;13.352;2023-05-31T12:26:08;9.80;;;8.90;;
19087;SDS011;9676;50.916;13.352;2023-05-31T12:29:01;11.27;;;9.10;;
19087;SDS011;9676;50.916;13.352;2023-05-31T12:31:51;10.10;;;9.10;;
19087;SDS011;9676;50.916;13.352;2023-05-31T12:34:48;16.60;;;9.00;;
19087;SDS011;9676;50.916;13.352;2023-05-31T12:37:38;9.80;;;8.77;;
19087;SDS011;9676;50.916;13.352;2023-05-31T12:40:28;10.63;;;8.93;;
19087;SDS011;9676;50.916;13.352;2023-05-31T12:43:18;10.00;;;8.97;;
19087;SDS011;9676;50.916;13.352;2023-05-31T12:46:10;10.33;;;8.90;;
19087;SDS011;9676;50.916;13.352;2023-05-31T12:49:12;10.20;;;8.97;;
19087;SDS011;9676;50.916;13.352;2023-05-31T12:52:08;10.07;;;9.07;;
19087;SDS011;9676;50.916;13.352;2023-05-31T12:54:59;9.70;;;8.80;;
19087;SDS011;9676;50.916;13.352;2023-05-31T12:57:49;9.60;;;8.70;;
19087;SDS011;9676;50.916;13.352;2023-05-31T13:00:40;9.77;;;8.80;;
19087;SDS011;9676;50.916;13.352;2023-05-31T13:03:32;9.70;;;8.80;;
19087;SDS011;9676;50.916;13.352;2023-05-31T13:06:21;10.40;;;8.90;;
19087;SDS011;9676;50.916;13.352;2023-05-31T13:09:11;9.93;;;8.93;;
19087;SDS011;9676;50.916;13.352;2023-05-31T13:12:00;9.63;;;8.70;;
19087;SDS011;9676;50.916;13.352;2023-05-31T13:14:50;9.67;;;8.77;;
19087;SDS011;9676;50.916;13.352;2023-05-31T13:17:40;9.63;;;8.73;;
19087;SDS011;9676;50.916;13.352;2023-05-31T13:20:31;9.80;;;8.90;;
19087;SDS011;9676;50.916;13.352;2023-05-31T13:23:20;9.43;;;8.57;;
19087;SDS011;9676;50.916;13.352;2023-05-31T13:26:10;9.67;;;8.73;;
19087;SDS011;9676;50.916;13.352;2023-05-31T13:28:59;12.10;;;9.67;;
19087;SDS011;9676;50.916;13.352;2023-05-31T13:31:52;9.80;;;8.83;;
19087;SDS011;9676;50.916;13.352;2023-05-31T13:34:41;10.13;;;9.03;;
19087;SDS011;9676;50.916;13.352;2023-05-31T13:37:32;9.90;;;8.90;;
19087;SDS011;9676;50.916;13.352;2023-05-31T13:40:21;9.40;;;8.40;;
19087;SDS011;9676;50.916;13.352;2023-05-31T13:43:11;9.90;;;8.90;;
19087;SDS011;9676;50.916;13.352;2023-05-31T13:46:01;9.80;;;8.90;;
19087;SDS011;9676;50.916;13.352;2023-05-31T13:48:51;9.53;;;8.70;;
19087;SDS011;9676;50.916;13.352;2023-05-31T13:51:41;9.97;;;9.00;;
19087;SDS011;9676;50.916;13.352;2023-05-31T13:54:32;10.00;;;9.10;;
19087;SDS011;9676;50.916;13.352;2023-05-31T13:57:21;10.10;;;9.10;;
19087;SDS011;9676;50.916;13.352;2023-05-31T14:00:11;9.40;;;8.60;;
19087;SDS011;9676;50.916;13.352;2023-05-31T14:03:01;10.13;;;9.07;;
19087;SDS011;9676;50.916;13.352;2023-05-31T14:05:51;10.17;;;9.10;;
19087;SDS011;9676;50.916;13.352;2023-05-31T14:08:41;9.97;;;8.97;;
19087;SDS011;9676;50.916;13.352;2023-05-31T14:11:33;10.00;;;9.10;;
19087;SDS011;9676;50.916;13.352;2023-05-31T14:14:22;9.87;;;8.87;;
19087;SDS011;9676;50.916;13.352;2023-05-31T14:17:12;21.83;;;9.47;;
19087;SDS011;9676;50.916;13.352;2023-05-31T14:20:02;9.80;;;8.80;;
19087;SDS011;9676;50.916;13.352;2023-05-31T14:22:53;11.00;;;8.73;;
19087;SDS011;9676;50.916;13.352;2023-05-31T14:25:42;9.80;;;8.90;;
19087;SDS011;9676;50.916;13.352;2023-05-31T14:28:33;9.47;;;8.60;;
19087;SDS011;9676;50.916;13.352;2023-05-31T14:31:23;9.80;;;8.80;;
19087;SDS011;9676;50.916;13.352;2023-05-31T14:34:12;9.70;;;8.80;;
19087;SDS011;9676;50.916;13.352;2023-05-31T14:37:03;9.70;;;8.80;;
19087;SDS011;9676;50.916;13.352;2023-05-31T14:40:01;9.83;;;8.87;;
19087;SDS011;9676;50.916;13.352;2023-05-31T14:42:52;9.90;;;8.87;;
19087;SDS011;9676;50.916;13.352;2023-05-31T14:45:43;9.83;;;8.90;;
19087;SDS011;9676;50.916;13.352;2023-05-31T14:48:32;11.53;;;9.07;;
19087;SDS011;9676;50.916;13.352;2023-05-31T14:51:22;9.87;;;8.97;;
19087;SDS011;9676;50.916;13.352;2023-05-31T14:54:11;9.47;;;8.67;;
19087;SDS011;9676;50.916;13.352;2023-05-31T14:57:00;9.93;;;9.03;;
19087;SDS011;9676;50.916;13.352;2023-05-31T14:59:50;9.57;;;8.67;;
19087;SDS011;9676;50.916;13.352;2023-05-31T15:02:41;9.80;;;8.90;;
19087;SDS011;9676;50.916;13.352;2023-05-31T15:05:31;9.60;;;8.70;;
19087;SDS011;9676;50.916;13.352;2023-05-31T15:08:20;9.83;;;8.83;;
19087;SDS011;9676;50.916;13.352;2023-05-31T15:11:10;10.30;;;9.17;;
19087;SDS011;9676;50.916;13.352;2023-05-31T15:13:59;9.67;;;8.77;;
19087;SDS011;9676;50.916;13.352;2023-05-31T15:16:49;10.40;;;9.13;;
19087;SDS011;9676;50.916;13.352;2023-05-31T15:19:40;10.43;;;9.40;;
19087;SDS011;9676;50.916;13.352;2023-05-31T15:22:29;10.17;;;9.10;;
19087;SDS011;9676;50.916;13.352;2023-05-31T15:25:18;10.10;;;9.10;;
19087;SDS011;9676;50.916;13.352;2023-05-31T15:28:08;9.50;;;8.60;;
19087;SDS011;9676;50.916;13.352;2023-05-31T15:30:57;10.00;;;9.00;;
19087;SDS011;9676;50.916;13.352;2023-05-31T15:33:49;9.83;;;8.80;;
19087;SDS011;9676;50.916;13.352;2023-05-31T15:36:40;9.80;;;8.90;;
19087;SDS011;9676;50.916;13.352;2023-05-31T15:39:30;10.20;;;8.87;;
19087;SDS011;9676;50.916;13.352;2023-05-31T15:42:19;12.40;;;8.87;;
19087;SDS011;9676;50.916;13.352;2023-05-31T15:45:09;10.10;;;9.10;;
19087;SDS011;9676;50.916;13.352;2023-05-31T15:47:59;9.73;;;8.80;;
19087;SDS011;9676;50.916;13.352;2023-05-31T15:50:48;10.20;;;9.20;;
19087;SDS011;9676;50.916;13.352;2023-05-31T15:53:39;9.80;;;8.80;;
19087;SDS011;9676;50.916;13.352;2023-05-31T15:56:29;10.10;;;9.10;;
19087;SDS011;9676;50.916;13.352;2023-05-31T15:59:18;10.27;;;8.90;;
19087;SDS011;9676;50.916;13.352;2023-05-31T16:02:07;10.00;;;8.77;;
19087;SDS011;9676;50.916;13.352;2023-05-31T16:04:57;10.10;;;9.07;;
19087;SDS011;9676;50.916;13.352;2023-05-31T16:07:47;9.90;;;8.90;;
19087;SDS011;9676;50.916;13.352;2023-05-31T16:10:38;9.70;;;8.80;;
19087;SDS011;9676;50.916;13.352;2023-05-31T16:13:27;10.13;;;9.10;;
19087;SDS011;9676;50.916;13.352;2023-05-31T16:16:16;9.70;;;8.80;;
19087;SDS011;9676;50.916;13.352;2023-05-31T16:19:06;10.40;;;8.90;;
19087;SDS011;9676;50.916;13.352;2023-05-31T16:21:55;10.33;;;9.30;;
19087;SDS011;9676;50.916;13.352;2023-05-31T16:24:45;14.60;;;9.13;;
19087;SDS011;9676;50.916;13.352;2023-05-31T16:27:36;9.50;;;8.70;;
19087;SDS011;9676;50.916;13.352;2023-05-31T16:30:25;10.07;;;9.17;;
19087;SDS011;9676;50.916;13.352;2023-05-31T16:33:14;9.90;;;9.00;;
19087;SDS011;9676;50.916;13.352;2023-05-31T16:36:04;10.30;;;9.27;;
19087;SDS011;9676;50.916;13.352;2023-05-31T16:38:53;10.13;;;9.13;;
19087;SDS011;9676;50.916;13.352;2023-05-31T16:41:43;10.37;;;9.27;;
19087;SDS011;9676;50.916;13.352;2023-05-31T16:44:33;10.20;;;8.93;;
19087;SDS011;9676;50.916;13.352;2023-05-31T16:47:23;10.00;;;9.00;;
19087;SDS011;9676;50.916;13.352;2023-05-31T16:50:12;10.00;;;9.00;;
19087;SDS011;9676;50.916;13.352;2023-05-31T16:53:02;9.57;;;8.77;;
19087;SDS011;9676;50.916;13.352;2023-05-31T16:55:52;10.20;;;9.20;;
19087;SDS011;9676;50.916;13.352;2023-05-31T16:58:42;10.10;;;9.00;;
19087;SDS011;9676;50.916;13.352;2023-05-31T17:01:33;9.80;;;8.90;;
19087;SDS011;9676;50.916;13.352;2023-05-31T17:04:22;10.30;;;9.30;;
19087;SDS011;9676;50.916;13.352;2023-05-31T17:07:12;9.90;;;9.00;;
19087;SDS011;9676;50.916;13.352;2023-05-31T17:10:01;10.13;;;9.07;;
19087;SDS011;9676;50.916;13.352;2023-05-31T17:12:51;10.17;;;9.17;;